sensor_id;sensor_type;location;lat;lon;timestamp;P1;durP1;ratioP1;P2;durP2;ratioP2
26620;SDS011;14253;44.840;10.444;2023-11-21T00:01:37;73.82;;;51.45;;
26620;SDS011;14253;44.840;10.444;2023-11-21T00:04:03;78.10;;;52.80;;
26620;SDS011;14253;44.840;10.444;2023-11-21T00:06:29;81.95;;;52.13;;
26620;SDS011;14253;44.840;10.444;2023-11-21T00:08:55;83.45;;;53.38;;
26620;SDS011;14253;44.840;10.444;2023-11-21T00:11:22;77.13;;;52.63;;
26620;SDS011;14253;44.840;10.444;2023-11-21T00:13:48;75.43;;;51.92;;
26620;SDS011;14253;44.840;10.444;2023-11-21T00:16:13;83.43;;;53.33;;
26620;SDS011;14253;44.840;10.444;2023-11-21T00:18:39;82.85;;;53.25;;
26620;SDS011;14253;44.840;10.444;2023-11-21T00:21:05;75.85;;;51.25;;
26620;SDS011;14253;44.840;10.444;2023-11-21T00:23:31;77.38;;;51.35;;
26620;SDS011;14253;44.840;10.444;2023-11-21T00:25:58;77.05;;;52.08;;
26620;SDS011;14253;44.840;10.444;2023-11-21T00:28:24;76.60;;;53.25;;
26620;SDS011;14253;44.840;10.444;2023-11-21T00:30:51;76.45;;;51.78;;
26620;SDS011;14253;44.840;10.444;2023-11-21T00:33:18;76.35;;;52.03;;
26620;SDS011;14253;44.840;10.444;2023-11-21T00:35:45;77.82;;;52.55;;
26620;SDS011;14253;44.840;10.444;2023-11-21T00:38:11;73.65;;;51.75;;
26620;SDS011;14253;44.840;10.444;2023-11-21T00:40:37;78.38;;;51.88;;
26620;SDS011;14253;44.840;10.444;2023-11-21T00:43:03;80.65;;;53.85;;
26620;SDS011;14253;44.840;10.444;2023-11-21T00:45:29;78.50;;;53.58;;
26620;SDS011;14253;44.840;10.444;2023-11-21T00:47:55;77.10;;;53.33;;
26620;SDS011;14253;44.840;10.444;2023-11-21T00:50:21;81.30;;;53.35;;
26620;SDS011;14253;44.840;10.444;2023-11-21T00:52:47;79.28;;;53.90;;
26620;SDS011;14253;44.840;10.444;2023-11-21T00:55:13;80.10;;;54.00;;
26620;SDS011;14253;44.840;10.444;2023-11-21T00:57:39;75.40;;;51.58;;
26620;SDS011;14253;44.840;10.444;2023-11-21T01:00:05;75.93;;;51.58;;
26620;SDS011;14253;44.840;10.444;2023-11-21T01:02:34;75.68;;;51.38;;
26620;SDS011;14253;44.840;10.444;2023-11-21T01:05:01;77.32;;;52.47;;
26620;SDS011;14253;44.840;10.444;2023-11-21T01:07:27;85.72;;;50.63;;
26620;SDS011;14253;44.840;10.444;2023-11-21T01:09:53;76.63;;;50.05;;
26620;SDS011;14253;44.840;10.444;2023-11-21T01:12:19;71.47;;;49.28;;
26620;SDS011;14253;44.840;10.444;2023-11-21T01:14:45;72.97;;;47.95;;
26620;SDS011;14253;44.840;10.444;2023-11-21T01:17:11;68.90;;;47.72;;
26620;SDS011;14253;44.840;10.444;2023-11-21T01:19:37;73.28;;;49.47;;
26620;SDS011;14253;44.840;10.444;2023-11-21T01:22:03;69.45;;;47.38;;
26620;SDS011;14253;44.840;10.444;2023-11-21T01:24:29;70.63;;;49.05;;
26620;SDS011;14253;44.840;10.444;2023-11-21T01:26:55;66.15;;;47.47;;
26620;SDS011;14253;44.840;10.444;2023-11-21T01:29:21;65.35;;;45.58;;
26620;SDS011;14253;44.840;10.444;2023-11-21T01:31:47;70.38;;;46.78;;
26620;SDS011;14253;44.840;10.444;2023-11-21T01:34:12;67.97;;;47.05;;
26620;SDS011;14253;44.840;10.444;2023-11-21T01:36:39;67.40;;;46.13;;
26620;SDS011;14253;44.840;10.444;2023-11-21T01:39:05;62.55;;;43.55;;
26620;SDS011;14253;44.840;10.444;2023-11-21T01:41:34;65.72;;;45.65;;
26620;SDS011;14253;44.840;10.444;2023-11-21T01:44:01;69.25;;;45.90;;
26620;SDS011;14253;44.840;10.444;2023-11-21T01:46:27;71.28;;;46.30;;
26620;SDS011;14253;44.840;10.444;2023-11-21T01:48:54;61.00;;;44.08;;
26620;SDS011;14253;44.840;10.444;2023-11-21T01:51:20;70.00;;;45.28;;
26620;SDS011;14253;44.840;10.444;2023-11-21T01:53:46;62.53;;;43.30;;
26620;SDS011;14253;44.840;10.444;2023-11-21T01:56:12;69.43;;;44.85;;
26620;SDS011;14253;44.840;10.444;2023-11-21T01:58:39;65.38;;;42.70;;
26620;SDS011;14253;44.840;10.444;2023-11-21T02:01:06;64.63;;;43.40;;
26620;SDS011;14253;44.840;10.444;2023-11-21T02:03:32;68.05;;;44.88;;
26620;SDS011;14253;44.840;10.444;2023-11-21T02:05:58;65.95;;;45.95;;
26620;SDS011;14253;44.840;10.444;2023-11-21T02:08:25;66.38;;;44.42;;
26620;SDS011;14253;44.840;10.444;2023-11-21T02:10:52;65.70;;;46.28;;
26620;SDS011;14253;44.840;10.444;2023-11-21T02:13:18;65.75;;;44.15;;
26620;SDS011;14253;44.840;10.444;2023-11-21T02:15:44;67.85;;;46.35;;
26620;SDS011;14253;44.840;10.444;2023-11-21T02:18:10;66.35;;;43.42;;
26620;SDS011;14253;44.840;10.444;2023-11-21T02:20:36;62.85;;;43.92;;
26620;SDS011;14253;44.840;10.444;2023-11-21T02:23:04;69.13;;;45.60;;
26620;SDS011;14253;44.840;10.444;2023-11-21T02:25:31;66.95;;;44.92;;
26620;SDS011;14253;44.840;10.444;2023-11-21T02:27:59;66.85;;;43.10;;
26620;SDS011;14253;44.840;10.444;2023-11-21T02:30:26;69.95;;;45.33;;
26620;SDS011;14253;44.840;10.444;2023-11-21T02:32:58;72.13;;;46.13;;
26620;SDS011;14253;44.840;10.444;2023-11-21T02:35:24;67.78;;;43.67;;
26620;SDS011;14253;44.840;10.444;2023-11-21T02:37:53;67.60;;;45.17;;
26620;SDS011;14253;44.840;10.444;2023-11-21T02:40:20;69.38;;;45.38;;
26620;SDS011;14253;44.840;10.444;2023-11-21T02:42:46;62.85;;;45.00;;
26620;SDS011;14253;44.840;10.444;2023-11-21T02:45:15;64.82;;;45.58;;
26620;SDS011;14253;44.840;10.444;2023-11-21T02:47:44;67.50;;;44.40;;
26620;SDS011;14253;44.840;10.444;2023-11-21T02:50:10;66.78;;;44.85;;
26620;SDS011;14253;44.840;10.444;2023-11-21T02:52:36;65.60;;;45.30;;
26620;SDS011;14253;44.840;10.444;2023-11-21T02:55:03;67.72;;;45.63;;
26620;SDS011;14253;44.840;10.444;2023-11-21T02:57:29;67.88;;;43.45;;
26620;SDS011;14253;44.840;10.444;2023-11-21T02:59:55;66.82;;;43.92;;
26620;SDS011;14253;44.840;10.444;2023-11-21T03:02:21;66.68;;;44.85;;
26620;SDS011;14253;44.840;10.444;2023-11-21T03:04:48;70.20;;;46.05;;
26620;SDS011;14253;44.840;10.444;2023-11-21T03:07:14;68.82;;;44.85;;
26620;SDS011;14253;44.840;10.444;2023-11-21T03:09:41;68.03;;;44.60;;
26620;SDS011;14253;44.840;10.444;2023-11-21T03:12:07;64.03;;;43.03;;
26620;SDS011;14253;44.840;10.444;2023-11-21T03:14:34;67.68;;;43.50;;
26620;SDS011;14253;44.840;10.444;2023-11-21T03:17:00;69.40;;;45.33;;
26620;SDS011;14253;44.840;10.444;2023-11-21T03:19:27;68.88;;;44.85;;
26620;SDS011;14253;44.840;10.444;2023-11-21T03:21:53;70.90;;;45.42;;
26620;SDS011;14253;44.840;10.444;2023-11-21T03:24:19;68.90;;;45.15;;
26620;SDS011;14253;44.840;10.444;2023-11-21T03:26:45;62.53;;;43.22;;
26620;SDS011;14253;44.840;10.444;2023-11-21T03:29:15;62.25;;;42.72;;
26620;SDS011;14253;44.840;10.444;2023-11-21T03:31:41;60.97;;;43.28;;
26620;SDS011;14253;44.840;10.444;2023-11-21T03:34:10;69.60;;;44.00;;
26620;SDS011;14253;44.840;10.444;2023-11-21T03:36:40;67.88;;;44.72;;
26620;SDS011;14253;44.840;10.444;2023-11-21T03:39:05;70.32;;;45.95;;
26620;SDS011;14253;44.840;10.444;2023-11-21T03:41:31;68.32;;;44.83;;
26620;SDS011;14253;44.840;10.444;2023-11-21T03:43:59;72.30;;;45.95;;
26620;SDS011;14253;44.840;10.444;2023-11-21T03:46:25;70.68;;;45.33;;
26620;SDS011;14253;44.840;10.444;2023-11-21T03:48:51;70.32;;;46.03;;
26620;SDS011;14253;44.840;10.444;2023-11-21T03:51:17;61.63;;;43.72;;
26620;SDS011;14253;44.840;10.444;2023-11-21T03:53:43;66.18;;;43.40;;
26620;SDS011;14253;44.840;10.444;2023-11-21T03:56:09;68.13;;;44.22;;
26620;SDS011;14253;44.840;10.444;2023-11-21T03:58:35;69.82;;;45.55;;
26620;SDS011;14253;44.840;10.444;2023-11-21T04:01:01;68.22;;;46.20;;
26620;SDS011;14253;44.840;10.444;2023-11-21T04:03:27;64.97;;;44.35;;
26620;SDS011;14253;44.840;10.444;2023-11-21T04:05:53;67.07;;;46.15;;
26620;SDS011;14253;44.840;10.444;2023-11-21T04:08:19;63.08;;;43.13;;
26620;SDS011;14253;44.840;10.444;2023-11-21T04:10:45;71.80;;;48.33;;
26620;SDS011;14253;44.840;10.444;2023-11-21T04:13:11;76.22;;;47.47;;
26620;SDS011;14253;44.840;10.444;2023-11-21T04:15:37;71.05;;;48.97;;
26620;SDS011;14253;44.840;10.444;2023-11-21T04:18:03;75.15;;;48.67;;
26620;SDS011;14253;44.840;10.444;2023-11-21T04:20:29;76.35;;;48.55;;
26620;SDS011;14253;44.840;10.444;2023-11-21T04:22:55;73.38;;;49.97;;
26620;SDS011;14253;44.840;10.444;2023-11-21T04:25:20;72.15;;;48.58;;
26620;SDS011;14253;44.840;10.444;2023-11-21T04:27:48;80.00;;;50.72;;
26620;SDS011;14253;44.840;10.444;2023-11-21T04:30:14;72.50;;;49.35;;
26620;SDS011;14253;44.840;10.444;2023-11-21T04:32:40;71.40;;;48.35;;
26620;SDS011;14253;44.840;10.444;2023-11-21T04:35:09;77.20;;;50.22;;
26620;SDS011;14253;44.840;10.444;2023-11-21T04:37:35;79.00;;;50.45;;
26620;SDS011;14253;44.840;10.444;2023-11-21T04:40:02;73.63;;;52.50;;
26620;SDS011;14253;44.840;10.444;2023-11-21T04:42:34;77.72;;;51.55;;
26620;SDS011;14253;44.840;10.444;2023-11-21T04:45:01;77.93;;;51.63;;
26620;SDS011;14253;44.840;10.444;2023-11-21T04:47:32;74.45;;;50.03;;
26620;SDS011;14253;44.840;10.444;2023-11-21T04:49:58;74.75;;;50.22;;
26620;SDS011;14253;44.840;10.444;2023-11-21T04:52:24;78.13;;;52.45;;
26620;SDS011;14253;44.840;10.444;2023-11-21T04:54:50;71.68;;;49.72;;
26620;SDS011;14253;44.840;10.444;2023-11-21T04:57:16;76.03;;;50.42;;
26620;SDS011;14253;44.840;10.444;2023-11-21T04:59:44;74.00;;;48.88;;
26620;SDS011;14253;44.840;10.444;2023-11-21T05:02:10;75.30;;;51.92;;
26620;SDS011;14253;44.840;10.444;2023-11-21T05:04:36;74.35;;;50.13;;
26620;SDS011;14253;44.840;10.444;2023-11-21T05:07:02;73.47;;;50.03;;
26620;SDS011;14253;44.840;10.444;2023-11-21T05:09:28;72.80;;;49.40;;
26620;SDS011;14253;44.840;10.444;2023-11-21T05:11:57;73.70;;;49.95;;
26620;SDS011;14253;44.840;10.444;2023-11-21T05:14:23;75.25;;;48.80;;
26620;SDS011;14253;44.840;10.444;2023-11-21T05:16:50;71.50;;;50.05;;
26620;SDS011;14253;44.840;10.444;2023-11-21T05:19:16;77.45;;;47.72;;
26620;SDS011;14253;44.840;10.444;2023-11-21T05:21:42;75.15;;;49.90;;
26620;SDS011;14253;44.840;10.444;2023-11-21T05:24:08;75.75;;;49.80;;
26620;SDS011;14253;44.840;10.444;2023-11-21T05:26:34;73.18;;;48.55;;
26620;SDS011;14253;44.840;10.444;2023-11-21T05:29:00;72.60;;;48.22;;
26620;SDS011;14253;44.840;10.444;2023-11-21T05:31:26;84.55;;;50.22;;
26620;SDS011;14253;44.840;10.444;2023-11-21T05:33:52;72.28;;;48.80;;
26620;SDS011;14253;44.840;10.444;2023-11-21T05:36:18;75.53;;;49.45;;
26620;SDS011;14253;44.840;10.444;2023-11-21T05:38:44;73.57;;;49.85;;
26620;SDS011;14253;44.840;10.444;2023-11-21T05:41:11;77.25;;;49.13;;
26620;SDS011;14253;44.840;10.444;2023-11-21T05:43:39;81.72;;;49.72;;
26620;SDS011;14253;44.840;10.444;2023-11-21T05:46:05;78.72;;;51.80;;
26620;SDS011;14253;44.840;10.444;2023-11-21T05:48:32;72.82;;;50.22;;
26620;SDS011;14253;44.840;10.444;2023-11-21T05:50:58;77.47;;;52.10;;
26620;SDS011;14253;44.840;10.444;2023-11-21T05:53:24;79.90;;;53.17;;
26620;SDS011;14253;44.840;10.444;2023-11-21T05:55:50;73.82;;;50.85;;
26620;SDS011;14253;44.840;10.444;2023-11-21T05:58:17;83.30;;;53.13;;
26620;SDS011;14253;44.840;10.444;2023-11-21T06:00:43;80.07;;;52.22;;
26620;SDS011;14253;44.840;10.444;2023-11-21T06:03:09;87.90;;;56.20;;
26620;SDS011;14253;44.840;10.444;2023-11-21T06:05:35;85.18;;;56.58;;
26620;SDS011;14253;44.840;10.444;2023-11-21T06:08:01;79.20;;;54.13;;
26620;SDS011;14253;44.840;10.444;2023-11-21T06:10:27;88.78;;;57.50;;
26620;SDS011;14253;44.840;10.444;2023-11-21T06:12:53;87.50;;;55.70;;
26620;SDS011;14253;44.840;10.444;2023-11-21T06:15:19;91.25;;;57.70;;
26620;SDS011;14253;44.840;10.444;2023-11-21T06:17:47;87.95;;;54.92;;
26620;SDS011;14253;44.840;10.444;2023-11-21T06:20:18;79.53;;;52.17;;
26620;SDS011;14253;44.840;10.444;2023-11-21T06:22:45;91.45;;;53.80;;
26620;SDS011;14253;44.840;10.444;2023-11-21T06:25:13;77.72;;;51.45;;
26620;SDS011;14253;44.840;10.444;2023-11-21T06:27:40;71.80;;;49.20;;
26620;SDS011;14253;44.840;10.444;2023-11-21T06:30:11;73.07;;;50.88;;
26620;SDS011;14253;44.840;10.444;2023-11-21T06:32:39;74.53;;;49.42;;
26620;SDS011;14253;44.840;10.444;2023-11-21T06:35:05;82.57;;;52.78;;
26620;SDS011;14253;44.840;10.444;2023-11-21T06:37:33;82.22;;;51.85;;
26620;SDS011;14253;44.840;10.444;2023-11-21T06:39:59;79.25;;;52.10;;
26620;SDS011;14253;44.840;10.444;2023-11-21T06:42:29;67.53;;;47.35;;
26620;SDS011;14253;44.840;10.444;2023-11-21T06:44:55;74.28;;;48.42;;
26620;SDS011;14253;44.840;10.444;2023-11-21T06:47:24;73.65;;;47.42;;
26620;SDS011;14253;44.840;10.444;2023-11-21T06:49:51;76.38;;;51.38;;
26620;SDS011;14253;44.840;10.444;2023-11-21T06:52:17;83.18;;;51.25;;
26620;SDS011;14253;44.840;10.444;2023-11-21T06:54:44;80.13;;;52.20;;
26620;SDS011;14253;44.840;10.444;2023-11-21T06:57:11;86.22;;;53.75;;
26620;SDS011;14253;44.840;10.444;2023-11-21T06:59:37;76.70;;;51.88;;
26620;SDS011;14253;44.840;10.444;2023-11-21T07:02:03;80.88;;;52.38;;
26620;SDS011;14253;44.840;10.444;2023-11-21T07:04:32;81.47;;;52.78;;
26620;SDS011;14253;44.840;10.444;2023-11-21T07:06:58;78.35;;;52.28;;
26620;SDS011;14253;44.840;10.444;2023-11-21T07:09:24;85.72;;;55.08;;
26620;SDS011;14253;44.840;10.444;2023-11-21T07:11:54;79.57;;;52.72;;
26620;SDS011;14253;44.840;10.444;2023-11-21T07:14:21;81.28;;;55.45;;
26620;SDS011;14253;44.840;10.444;2023-11-21T07:16:47;86.72;;;56.08;;
26620;SDS011;14253;44.840;10.444;2023-11-21T07:19:13;86.40;;;55.95;;
26620;SDS011;14253;44.840;10.444;2023-11-21T07:21:39;77.47;;;52.35;;
26620;SDS011;14253;44.840;10.444;2023-11-21T07:24:06;85.97;;;55.55;;
26620;SDS011;14253;44.840;10.444;2023-11-21T07:26:33;79.13;;;52.85;;
26620;SDS011;14253;44.840;10.444;2023-11-21T07:29:00;90.75;;;54.75;;
26620;SDS011;14253;44.840;10.444;2023-11-21T07:31:28;84.80;;;53.42;;
26620;SDS011;14253;44.840;10.444;2023-11-21T07:33:54;85.68;;;54.17;;
26620;SDS011;14253;44.840;10.444;2023-11-21T07:36:24;79.97;;;53.58;;
26620;SDS011;14253;44.840;10.444;2023-11-21T07:38:50;80.53;;;53.60;;
26620;SDS011;14253;44.840;10.444;2023-11-21T07:41:17;80.32;;;54.28;;
26620;SDS011;14253;44.840;10.444;2023-11-21T07:43:46;88.80;;;55.97;;
26620;SDS011;14253;44.840;10.444;2023-11-21T07:46:12;86.40;;;55.42;;
26620;SDS011;14253;44.840;10.444;2023-11-21T07:48:39;80.97;;;54.10;;
26620;SDS011;14253;44.840;10.444;2023-11-21T07:51:07;83.18;;;56.65;;
26620;SDS011;14253;44.840;10.444;2023-11-21T07:53:33;77.88;;;53.45;;
26620;SDS011;14253;44.840;10.444;2023-11-21T07:56:03;82.53;;;53.97;;
26620;SDS011;14253;44.840;10.444;2023-11-21T07:58:34;89.63;;;55.60;;
26620;SDS011;14253;44.840;10.444;2023-11-21T08:01:00;78.82;;;52.53;;
26620;SDS011;14253;44.840;10.444;2023-11-21T08:03:27;82.72;;;54.03;;
26620;SDS011;14253;44.840;10.444;2023-11-21T08:05:55;86.68;;;55.55;;
26620;SDS011;14253;44.840;10.444;2023-11-21T08:08:22;84.60;;;53.78;;
26620;SDS011;14253;44.840;10.444;2023-11-21T08:10:49;85.95;;;54.33;;
26620;SDS011;14253;44.840;10.444;2023-11-21T08:13:22;77.45;;;54.05;;
26620;SDS011;14253;44.840;10.444;2023-11-21T08:15:54;84.25;;;55.03;;
26620;SDS011;14253;44.840;10.444;2023-11-21T08:18:29;89.03;;;57.03;;
26620;SDS011;14253;44.840;10.444;2023-11-21T08:20:55;88.93;;;54.90;;
26620;SDS011;14253;44.840;10.444;2023-11-21T08:23:21;88.07;;;57.75;;
26620;SDS011;14253;44.840;10.444;2023-11-21T08:25:50;89.50;;;56.92;;
26620;SDS011;14253;44.840;10.444;2023-11-21T08:28:17;87.10;;;56.97;;
26620;SDS011;14253;44.840;10.444;2023-11-21T08:30:43;87.70;;;56.78;;
26620;SDS011;14253;44.840;10.444;2023-11-21T08:33:09;82.30;;;57.25;;
26620;SDS011;14253;44.840;10.444;2023-11-21T08:35:36;83.70;;;56.80;;
26620;SDS011;14253;44.840;10.444;2023-11-21T08:38:02;100.15;;;65.28;;
26620;SDS011;14253;44.840;10.444;2023-11-21T08:40:29;87.03;;;60.10;;
26620;SDS011;14253;44.840;10.444;2023-11-21T08:42:55;84.47;;;58.20;;
26620;SDS011;14253;44.840;10.444;2023-11-21T08:45:24;94.00;;;64.70;;
26620;SDS011;14253;44.840;10.444;2023-11-21T08:47:51;83.78;;;60.03;;
26620;SDS011;14253;44.840;10.444;2023-11-21T08:50:17;90.32;;;58.78;;
26620;SDS011;14253;44.840;10.444;2023-11-21T08:52:44;82.15;;;56.22;;
26620;SDS011;14253;44.840;10.444;2023-11-21T08:55:11;87.95;;;59.20;;
26620;SDS011;14253;44.840;10.444;2023-11-21T08:57:40;86.90;;;59.30;;
26620;SDS011;14253;44.840;10.444;2023-11-21T09:00:08;83.45;;;56.20;;
26620;SDS011;14253;44.840;10.444;2023-11-21T09:02:39;88.50;;;56.67;;
26620;SDS011;14253;44.840;10.444;2023-11-21T09:07:39;89.55;;;57.63;;
26620;SDS011;14253;44.840;10.444;2023-11-21T09:10:06;87.90;;;58.75;;
26620;SDS011;14253;44.840;10.444;2023-11-21T09:12:37;88.35;;;57.78;;
26620;SDS011;14253;44.840;10.444;2023-11-21T09:15:06;91.97;;;60.67;;
26620;SDS011;14253;44.840;10.444;2023-11-21T09:17:34;95.75;;;59.10;;
26620;SDS011;14253;44.840;10.444;2023-11-21T09:20:01;88.50;;;60.25;;
26620;SDS011;14253;44.840;10.444;2023-11-21T09:22:30;84.75;;;57.10;;
26620;SDS011;14253;44.840;10.444;2023-11-21T09:24:57;82.53;;;56.80;;
26620;SDS011;14253;44.840;10.444;2023-11-21T09:27:23;85.13;;;58.33;;
26620;SDS011;14253;44.840;10.444;2023-11-21T09:29:51;85.75;;;55.90;;
26620;SDS011;14253;44.840;10.444;2023-11-21T09:32:18;84.45;;;57.53;;
26620;SDS011;14253;44.840;10.444;2023-11-21T09:34:44;86.03;;;60.55;;
26620;SDS011;14253;44.840;10.444;2023-11-21T09:37:10;90.68;;;60.13;;
26620;SDS011;14253;44.840;10.444;2023-11-21T09:39:36;85.35;;;59.55;;
26620;SDS011;14253;44.840;10.444;2023-11-21T09:42:06;83.80;;;58.08;;
26620;SDS011;14253;44.840;10.444;2023-11-21T09:45:03;88.80;;;56.13;;
26620;SDS011;14253;44.840;10.444;2023-11-21T09:47:49;90.25;;;58.60;;
26620;SDS011;14253;44.840;10.444;2023-11-21T09:50:23;90.85;;;57.30;;
26620;SDS011;14253;44.840;10.444;2023-11-21T09:55:51;86.32;;;59.58;;
26620;SDS011;14253;44.840;10.444;2023-11-21T09:58:18;91.10;;;60.50;;
26620;SDS011;14253;44.840;10.444;2023-11-21T10:00:48;84.45;;;58.97;;
26620;SDS011;14253;44.840;10.444;2023-11-21T10:03:18;94.43;;;59.33;;
26620;SDS011;14253;44.840;10.444;2023-11-21T10:05:44;90.15;;;59.78;;
26620;SDS011;14253;44.840;10.444;2023-11-21T10:08:12;86.43;;;58.97;;
26620;SDS011;14253;44.840;10.444;2023-11-21T10:10:41;91.80;;;58.90;;
26620;SDS011;14253;44.840;10.444;2023-11-21T10:13:13;84.57;;;56.83;;
26620;SDS011;14253;44.840;10.444;2023-11-21T10:15:42;98.45;;;58.90;;
26620;SDS011;14253;44.840;10.444;2023-11-21T10:20:40;90.78;;;57.97;;
26620;SDS011;14253;44.840;10.444;2023-11-21T10:23:06;83.72;;;56.65;;
26620;SDS011;14253;44.840;10.444;2023-11-21T10:25:36;82.30;;;54.88;;
26620;SDS011;14253;44.840;10.444;2023-11-21T10:28:03;86.22;;;57.63;;
26620;SDS011;14253;44.840;10.444;2023-11-21T10:30:35;83.93;;;56.50;;
26620;SDS011;14253;44.840;10.444;2023-11-21T10:33:05;81.20;;;55.60;;
26620;SDS011;14253;44.840;10.444;2023-11-21T10:38:12;80.78;;;55.28;;
26620;SDS011;14253;44.840;10.444;2023-11-21T10:40:42;89.13;;;57.22;;
26620;SDS011;14253;44.840;10.444;2023-11-21T10:43:10;81.63;;;56.00;;
26620;SDS011;14253;44.840;10.444;2023-11-21T10:45:37;81.57;;;57.50;;
26620;SDS011;14253;44.840;10.444;2023-11-21T10:48:06;83.88;;;56.75;;
26620;SDS011;14253;44.840;10.444;2023-11-21T10:50:34;85.53;;;57.10;;
26620;SDS011;14253;44.840;10.444;2023-11-21T10:53:01;85.22;;;58.22;;
26620;SDS011;14253;44.840;10.444;2023-11-21T10:55:29;92.55;;;60.20;;
26620;SDS011;14253;44.840;10.444;2023-11-21T10:57:58;86.63;;;58.70;;
26620;SDS011;14253;44.840;10.444;2023-11-21T11:00:26;85.88;;;58.67;;
26620;SDS011;14253;44.840;10.444;2023-11-21T11:02:56;92.43;;;58.00;;
26620;SDS011;14253;44.840;10.444;2023-11-21T11:05:22;88.30;;;58.97;;
26620;SDS011;14253;44.840;10.444;2023-11-21T11:07:50;86.95;;;57.75;;
26620;SDS011;14253;44.840;10.444;2023-11-21T11:10:25;81.15;;;55.72;;
26620;SDS011;14253;44.840;10.444;2023-11-21T11:12:53;86.05;;;58.55;;
26620;SDS011;14253;44.840;10.444;2023-11-21T11:15:21;80.53;;;56.85;;
26620;SDS011;14253;44.840;10.444;2023-11-21T11:17:48;84.95;;;56.97;;
26620;SDS011;14253;44.840;10.444;2023-11-21T11:20:15;83.00;;;56.70;;
26620;SDS011;14253;44.840;10.444;2023-11-21T11:25:35;87.82;;;57.92;;
26620;SDS011;14253;44.840;10.444;2023-11-21T11:28:38;80.55;;;56.10;;
26620;SDS011;14253;44.840;10.444;2023-11-21T11:33:58;88.05;;;57.60;;
26620;SDS011;14253;44.840;10.444;2023-11-21T11:36:51;82.13;;;55.58;;
26620;SDS011;14253;44.840;10.444;2023-11-21T11:39:28;82.05;;;55.10;;
26620;SDS011;14253;44.840;10.444;2023-11-21T11:42:01;82.25;;;57.53;;
26620;SDS011;14253;44.840;10.444;2023-11-21T11:50:00;78.85;;;54.65;;
26620;SDS011;14253;44.840;10.444;2023-11-21T11:52:45;72.78;;;52.88;;
26620;SDS011;14253;44.840;10.444;2023-11-21T11:55:12;78.88;;;53.47;;
26620;SDS011;14253;44.840;10.444;2023-11-21T11:57:43;81.82;;;54.88;;
26620;SDS011;14253;44.840;10.444;2023-11-21T12:02:56;73.40;;;50.88;;
26620;SDS011;14253;44.840;10.444;2023-11-21T12:05:25;73.65;;;51.47;;
26620;SDS011;14253;44.840;10.444;2023-11-21T12:07:54;75.75;;;51.25;;
26620;SDS011;14253;44.840;10.444;2023-11-21T12:10:28;81.45;;;53.17;;
26620;SDS011;14253;44.840;10.444;2023-11-21T12:13:02;74.07;;;52.15;;
26620;SDS011;14253;44.840;10.444;2023-11-21T12:15:33;76.05;;;52.03;;
26620;SDS011;14253;44.840;10.444;2023-11-21T12:18:00;84.45;;;51.88;;
26620;SDS011;14253;44.840;10.444;2023-11-21T12:20:27;75.85;;;51.13;;
26620;SDS011;14253;44.840;10.444;2023-11-21T12:22:54;77.15;;;53.13;;
26620;SDS011;14253;44.840;10.444;2023-11-21T12:25:25;77.78;;;53.90;;
26620;SDS011;14253;44.840;10.444;2023-11-21T12:27:57;76.15;;;52.88;;
26620;SDS011;14253;44.840;10.444;2023-11-21T12:30:28;77.05;;;54.08;;
26620;SDS011;14253;44.840;10.444;2023-11-21T12:33:01;77.25;;;51.95;;
26620;SDS011;14253;44.840;10.444;2023-11-21T12:35:29;74.38;;;49.88;;
26620;SDS011;14253;44.840;10.444;2023-11-21T12:37:59;75.68;;;51.53;;
26620;SDS011;14253;44.840;10.444;2023-11-21T12:40:28;78.60;;;52.17;;
26620;SDS011;14253;44.840;10.444;2023-11-21T12:42:55;76.45;;;52.45;;
26620;SDS011;14253;44.840;10.444;2023-11-21T12:45:24;76.07;;;53.03;;
26620;SDS011;14253;44.840;10.444;2023-11-21T12:47:56;75.13;;;50.88;;
26620;SDS011;14253;44.840;10.444;2023-11-21T12:50:25;74.38;;;50.05;;
26620;SDS011;14253;44.840;10.444;2023-11-21T12:53:03;74.85;;;51.13;;
26620;SDS011;14253;44.840;10.444;2023-11-21T12:55:43;77.82;;;50.97;;
26620;SDS011;14253;44.840;10.444;2023-11-21T12:58:15;77.40;;;52.88;;
26620;SDS011;14253;44.840;10.444;2023-11-21T13:00:48;83.53;;;55.28;;
26620;SDS011;14253;44.840;10.444;2023-11-21T13:03:15;78.13;;;54.13;;
26620;SDS011;14253;44.840;10.444;2023-11-21T13:05:43;71.18;;;52.00;;
26620;SDS011;14253;44.840;10.444;2023-11-21T13:08:12;78.85;;;53.85;;
26620;SDS011;14253;44.840;10.444;2023-11-21T13:10:39;74.97;;;53.30;;
26620;SDS011;14253;44.840;10.444;2023-11-21T13:13:08;79.88;;;55.08;;
26620;SDS011;14253;44.840;10.444;2023-11-21T13:15:39;81.32;;;55.92;;
26620;SDS011;14253;44.840;10.444;2023-11-21T13:18:08;76.10;;;51.95;;
26620;SDS011;14253;44.840;10.444;2023-11-21T13:20:36;73.47;;;52.85;;
26620;SDS011;14253;44.840;10.444;2023-11-21T13:23:07;78.80;;;54.70;;
26620;SDS011;14253;44.840;10.444;2023-11-21T13:25:34;81.78;;;55.20;;
26620;SDS011;14253;44.840;10.444;2023-11-21T13:28:01;87.85;;;57.03;;
26620;SDS011;14253;44.840;10.444;2023-11-21T13:30:28;76.70;;;54.08;;
26620;SDS011;14253;44.840;10.444;2023-11-21T13:33:00;76.30;;;54.90;;
26620;SDS011;14253;44.840;10.444;2023-11-21T13:35:34;79.95;;;53.85;;
26620;SDS011;14253;44.840;10.444;2023-11-21T13:38:08;81.53;;;54.60;;
26620;SDS011;14253;44.840;10.444;2023-11-21T13:40:39;81.28;;;54.58;;
26620;SDS011;14253;44.840;10.444;2023-11-21T13:43:12;73.85;;;52.80;;
26620;SDS011;14253;44.840;10.444;2023-11-21T13:45:42;81.47;;;54.15;;
26620;SDS011;14253;44.840;10.444;2023-11-21T13:48:09;71.05;;;51.80;;
26620;SDS011;14253;44.840;10.444;2023-11-21T13:50:47;74.63;;;53.42;;
26620;SDS011;14253;44.840;10.444;2023-11-21T13:53:20;75.38;;;51.33;;
26620;SDS011;14253;44.840;10.444;2023-11-21T13:55:50;73.80;;;52.63;;
26620;SDS011;14253;44.840;10.444;2023-11-21T13:58:20;75.57;;;53.08;;
26620;SDS011;14253;44.840;10.444;2023-11-21T14:01:25;75.53;;;53.33;;
26620;SDS011;14253;44.840;10.444;2023-11-21T14:03:58;74.95;;;52.33;;
26620;SDS011;14253;44.840;10.444;2023-11-21T14:06:46;80.05;;;52.22;;
26620;SDS011;14253;44.840;10.444;2023-11-21T14:12:07;77.93;;;53.30;;
26620;SDS011;14253;44.840;10.444;2023-11-21T14:14:34;72.70;;;52.42;;
26620;SDS011;14253;44.840;10.444;2023-11-21T14:17:00;78.55;;;53.83;;
26620;SDS011;14253;44.840;10.444;2023-11-21T14:19:32;75.30;;;52.38;;
26620;SDS011;14253;44.840;10.444;2023-11-21T14:22:01;79.55;;;55.05;;
26620;SDS011;14253;44.840;10.444;2023-11-21T14:24:27;77.90;;;54.03;;
26620;SDS011;14253;44.840;10.444;2023-11-21T14:26:55;78.47;;;54.78;;
26620;SDS011;14253;44.840;10.444;2023-11-21T14:29:21;83.85;;;56.03;;
26620;SDS011;14253;44.840;10.444;2023-11-21T14:31:48;83.95;;;56.55;;
26620;SDS011;14253;44.840;10.444;2023-11-21T14:34:16;91.00;;;56.03;;
26620;SDS011;14253;44.840;10.444;2023-11-21T14:36:43;82.65;;;56.35;;
26620;SDS011;14253;44.840;10.444;2023-11-21T14:39:10;81.97;;;54.60;;
26620;SDS011;14253;44.840;10.444;2023-11-21T14:41:48;80.00;;;54.22;;